3NY8 weather

Suny Health Science Center Heliport
Syracuse, New York, United States

Public forecast

Using degrees Fahrenheit for public forecast. Weather courtesy of forecast.io.

Closest aviation weather report (METAR) to Suny Health Science Center Heliport

Closest report is Syracuse Hancock International Airport, 4.4 nm (8.2 km) NNE. Retrieved 2019/11/14 12:54 UTC (20 minutes ago):

KSYR 141254Z 18008KT 10SM BKN049 OVC055 M02/M10 A3026 RMK AO2 SLP249 T10171100

Closest aviation forecast (TAF) to Suny Health Science Center Heliport

Closest forecast is Syracuse Hancock International Airport, 4.4 nm (8.2 km) NNE. Retrieved 2019/11/14 12:22 UTC (52 minutes ago):

TAF KSYR 141120Z 1412/1512 VRB04KT P6SM OVC090 FM141900 19008KT P6SM SCT150 FM150300 VRB04KT P6SM SCT060